Time;durP1;ratioP1;P1;durP2;ratioP2;P2;SDS_P1;SDS_P2;PMS_P1;PMS_P2;Temp;Humidity;BMP_temperature;BMP_pressure;BME280_temperature;BME280_humidity;BME280_pressure;Samples;Min_cycle;Max_cycle;Signal;HPM_P1;HPM_P2
2023/07/10 00:01:03;;;;;;;6.03;2.08;;;;;;;21.27;95.78;101912.34;5209147;28;20030;-67
2023/07/10 00:03:34;;;;;;;6.28;2.20;;;;;;;21.41;95.16;101916.97;5192216;28;20120;-65
2023/07/10 00:06:11;;;;;;;5.23;2.37;;;;;;;21.45;95.07;101920.13;5208468;28;20021;-68
2023/07/10 00:08:43;;;;;;;7.70;2.17;;;;;;;21.20;97.11;101914.88;5207636;28;20034;-66
2023/07/10 00:11:26;;;;;;;4.93;2.37;;;;;;;21.36;96.56;101924.66;5202138;28;20042;-68
2023/07/10 00:13:58;;;;;;;7.38;2.60;;;;;;;21.26;97.55;101914.19;5208076;28;20030;-67
2023/07/10 00:16:29;;;;;;;6.23;2.10;;;;;;;21.36;98.68;101924.66;5208385;28;20053;-68
2023/07/10 00:19:00;;;;;;;6.93;2.00;;;;;;;21.35;100.00;101926.50;5207878;28;20061;-68
2023/07/10 00:21:31;;;;;;;4.03;2.03;;;;;;;21.26;100.00;101926.69;5206860;28;20117;-66
2023/07/10 00:24:03;;;;;;;6.00;2.10;;;;;;;21.23;100.00;101929.69;5209011;28;20391;-67
2023/07/10 00:26:37;;;;;;;3.53;1.70;;;;;;;21.14;100.00;101924.41;5206928;28;20527;-67
2023/07/10 00:29:20;;;;;;;6.30;2.25;;;;;;;21.26;100.00;101924.84;5206738;28;20025;-67
2023/07/10 00:31:52;;;;;;;7.45;2.35;;;;;;;21.06;100.00;101918.25;5209330;28;20124;-67
2023/07/10 00:34:25;;;;;;;4.83;2.03;;;;;;;21.07;100.00;101904.78;5207672;28;20026;-67
2023/07/10 00:36:56;;;;;;;;;;;;;;;21.85;98.58;101911.81;5208851;28;20133;-68
2023/07/10 00:39:30;;;;;;;5.63;2.10;;;;;;;21.18;100.00;101910.75;5208573;28;20012;-68
2023/07/10 00:42:13;;;;;;;3.35;1.90;;;;;;;21.14;100.00;101918.25;5208333;28;20295;-66
2023/07/10 00:44:56;;;;;;;9.27;2.30;;;;;;;21.07;100.00;101926.09;5205748;28;20064;-65
2023/07/10 00:47:34;;;;;;;5.30;2.30;;;;;;;21.11;100.00;101929.25;5208928;28;20104;-67
2023/07/10 00:50:26;;;;;;;4.22;2.25;;;;;;;21.13;100.00;101922.72;5208519;28;20037;-66
2023/07/10 00:53:00;;;;;;;6.45;2.20;;;;;;;20.95;100.00;101935.47;5208523;28;20081;-67
2023/07/10 00:55:36;;;;;;;7.20;2.00;;;;;;;20.87;100.00;101927.50;5209323;28;20041;-66
2023/07/10 00:58:28;;;;;;;5.38;1.77;;;;;;;21.16;100.00;101920.72;5206989;28;20663;-67
2023/07/10 01:01:08;;;;;;;5.38;1.85;;;;;;;20.87;100.00;101923.03;5207749;28;21953;-67
2023/07/10 01:03:41;;;;;;;4.05;1.70;;;;;;;20.86;100.00;101924.00;5208905;28;20593;-67
2023/07/10 01:06:21;;;;;;;5.03;1.92;;;;;;;20.90;100.00;101925.31;5209462;28;20033;-67
2023/07/10 01:08:57;;;;;;;5.28;1.83;;;;;;;20.83;100.00;101921.66;5208139;28;20531;-67
2023/07/10 01:11:29;;;;;;;3.20;1.70;;;;;;;20.66;100.00;101922.75;5208234;28;20109;-67
2023/07/10 01:14:03;;;;;;;5.55;2.20;;;;;;;20.66;100.00;101920.06;5208314;28;20029;-67
2023/07/10 01:16:35;;;;;;;6.10;2.00;;;;;;;20.64;100.00;101927.38;5207298;28;20030;-68
2023/07/10 01:19:16;;;;;;;6.15;1.80;;;;;;;20.81;100.00;101925.53;5208095;28;20064;-68
2023/07/10 01:21:50;;;;;;;6.20;2.10;;;;;;;20.69;100.00;101924.25;5208941;28;20073;-68
2023/07/10 01:24:21;;;;;;;3.60;1.90;;;;;;;20.64;100.00;101916.75;5207647;28;20029;-67
2023/07/10 01:26:55;;;;;;;4.40;2.10;;;;;;;20.67;100.00;101919.06;5208447;28;20046;-67
2023/07/10 01:29:52;;;;;;;6.00;1.88;;;;;;;20.98;100.00;101918.31;5209711;28;20049;-67
2023/07/10 01:32:27;;;;;;;5.72;2.40;;;;;;;20.58;100.00;101917.44;5208654;28;20395;-68
2023/07/10 01:35:03;;;;;;;4.05;2.10;;;;;;;20.68;100.00;101914.56;5209192;28;20037;-67
2023/07/10 01:37:35;;;;;;;4.13;2.00;;;;;;;20.59;100.00;101898.63;5208301;28;20061;-65
2023/07/10 01:40:11;;;;;;;6.07;2.63;;;;;;;20.74;100.00;101908.56;5209167;28;20128;-67
2023/07/10 01:42:43;;;;;;;5.07;2.08;;;;;;;20.56;100.00;101909.59;5207321;28;20025;-67
2023/07/10 01:45:14;;;;;;;5.87;2.33;;;;;;;20.60;100.00;101916.25;5209300;28;20372;-67
2023/07/10 01:47:45;;;;;;;7.90;2.50;;;;;;;20.57;100.00;101915.75;5209001;28;20034;-67
2023/07/10 01:50:17;;;;;;;2.57;1.87;;;;;;;20.57;100.00;101921.06;5212627;28;20033;-68
2023/07/10 01:52:48;;;;;;;8.50;2.63;;;;;;;20.57;100.00;101921.94;5212434;28;20463;-64
2023/07/10 01:55:19;;;;;;;4.60;2.23;;;;;;;20.52;100.00;101926.91;5212045;28;20042;-66
2023/07/10 01:57:54;;;;;;;5.93;2.43;;;;;;;20.56;100.00;101909.59;5213167;28;20029;-65
2023/07/10 02:00:25;;;;;;;5.70;2.75;;;;;;;20.42;100.00;101915.59;5210845;28;20155;-67
2023/07/10 02:02:56;;;;;;;5.77;2.30;;;;;;;20.44;100.00;101924.25;5212414;28;20128;-66
2023/07/10 02:05:27;;;;;;;4.20;2.60;;;;;;;20.40;100.00;101925.56;5210211;28;20025;-66
2023/07/10 02:07:59;;;;;;;6.33;2.00;;;;;;;20.34;100.00;101924.44;5212036;28;20030;-66
2023/07/10 02:10:31;;;;;;;4.67;2.50;;;;;;;20.28;100.00;101911.78;5209957;28;20048;-67
2023/07/10 02:13:02;;;;;;;5.93;2.58;;;;;;;20.16;100.00;101905.97;5212712;28;20391;-65
2023/07/10 02:15:33;;;;;;;8.17;3.00;;;;;;;20.18;100.00;101919.94;5212188;28;20040;-66
2023/07/10 02:18:05;;;;;;;4.77;2.40;;;;;;;20.17;100.00;101922.78;5210850;28;20040;-67
2023/07/10 02:20:39;;;;;;;5.30;2.40;;;;;;;20.09;100.00;101915.63;5212663;28;20080;-67
2023/07/10 02:23:10;;;;;;;5.85;2.78;;;;;;;20.06;100.00;101928.44;5209758;28;20018;-66
2023/07/10 02:25:41;;;;;;;5.73;2.33;;;;;;;20.11;100.00;101939.38;5211245;28;20116;-67
2023/07/10 02:28:12;;;;;;;5.97;2.27;;;;;;;20.09;100.00;101936.06;5212593;28;20033;-66
2023/07/10 02:30:44;;;;;;;6.07;2.53;;;;;;;20.08;100.00;101945.91;5211387;28;20045;-66
2023/07/10 02:33:15;;;;;;;4.60;2.80;;;;;;;20.07;100.00;101941.53;5211777;28;20029;-66
2023/07/10 02:35:46;;;;;;;5.37;2.80;;;;;;;20.07;100.00;101946.03;5211083;28;20042;-66
2023/07/10 02:38:18;;;;;;;6.23;3.07;;;;;;;20.01;100.00;101936.91;5210854;28;20120;-66
2023/07/10 02:40:49;;;;;;;8.50;3.53;;;;;;;20.02;100.00;101933.25;5210010;28;20053;-66
2023/07/10 02:43:20;;;;;;;5.80;3.50;;;;;;;20.05;100.00;101940.06;5211574;28;20025;-66
2023/07/10 02:45:51;;;;;;;5.30;3.40;;;;;;;19.97;100.00;101943.56;5208640;28;20121;-66
2023/07/10 02:48:23;;;;;;;8.00;4.30;;;;;;;19.92;100.00;101940.53;5212354;28;20034;-68
2023/07/10 02:50:54;;;;;;;7.27;4.30;;;;;;;19.94;100.00;101935.91;5211980;28;20522;-65
2023/07/10 02:53:25;;;;;;;8.18;4.22;;;;;;;19.89;100.00;101930.25;5210305;28;20112;-68
2023/07/10 02:55:57;;;;;;;6.20;4.68;;;;;;;19.93;100.00;101940.41;5210882;28;20049;-67
2023/07/10 02:58:28;;;;;;;5.80;3.90;;;;;;;19.85;100.00;101940.38;5209665;28;20049;-66
2023/07/10 03:01:01;;;;;;;10.00;4.50;;;;;;;19.77;100.00;101950.16;5210624;28;20064;-67
2023/07/10 03:03:32;;;;;;;;;;;;;;;20.61;100.00;101952.53;5211818;28;20528;-66
2023/07/10 03:06:04;;;;;;;7.53;4.77;;;;;;;19.86;100.00;101957.19;5210403;28;19931;-66
2023/07/10 03:08:36;;;;;;;9.82;5.00;;;;;;;19.75;100.00;101957.47;5209442;28;20044;-67
2023/07/10 03:11:09;;;;;;;6.63;4.77;;;;;;;19.82;100.00;101950.53;5211161;28;20026;-66
2023/07/10 03:13:41;;;;;;;7.93;5.97;;;;;;;19.67;100.00;101952.97;5211935;28;20037;-67
2023/07/10 03:16:14;;;;;;;8.80;5.73;;;;;;;19.65;100.00;101954.97;5211525;28;20029;-66
2023/07/10 03:18:45;;;;;;;9.48;5.82;;;;;;;19.61;100.00;101964.22;5210660;28;20026;-67
2023/07/10 03:21:17;;;;;;;8.83;6.03;;;;;;;19.63;100.00;101970.25;5210709;28;20024;-67
2023/07/10 03:23:49;;;;;;;7.68;5.35;;;;;;;19.56;100.00;101972.69;5210669;28;20118;-66
2023/07/10 03:26:20;;;;;;;9.60;6.78;;;;;;;19.54;100.00;101972.00;5210726;28;20041;-66
2023/07/10 03:29:04;;;;;;;13.70;6.67;;;;;;;19.78;100.00;101973.94;5210549;28;20030;-67
2023/07/10 03:31:36;;;;;;;10.98;5.85;;;;;;;19.47;100.00;101975.47;5209446;28;20034;-66
2023/07/10 03:34:08;;;;;;;7.33;5.53;;;;;;;19.50;100.00;101975.16;5211423;28;20360;-67
2023/07/10 03:36:40;;;;;;;8.13;6.20;;;;;;;19.49;100.00;101973.50;5211334;28;20046;-65
2023/07/10 03:39:12;;;;;;;9.68;5.35;;;;;;;19.47;100.00;101968.31;5210361;28;20045;-67
2023/07/10 03:41:44;;;;;;;8.63;5.68;;;;;;;19.46;100.00;101971.97;5207697;28;20338;-67
2023/07/10 03:44:15;;;;;;;9.90;5.90;;;;;;;19.41;100.00;101969.81;5209572;28;20018;-66
2023/07/10 03:46:46;;;;;;;7.63;5.73;;;;;;;19.43;100.00;101978.47;5210382;28;20470;-66
2023/07/10 03:49:18;;;;;;;7.95;5.30;;;;;;;19.39;100.00;101987.72;5210887;28;20040;-67
2023/07/10 03:51:49;;;;;;;6.43;5.50;;;;;;;19.37;100.00;101981.75;5210071;28;20441;-66
2023/07/10 03:54:20;;;;;;;7.53;5.60;;;;;;;19.31;100.00;101982.38;5208376;28;20021;-67
2023/07/10 03:56:51;;;;;;;10.53;5.60;;;;;;;19.34;100.00;101982.06;5209307;28;20034;-67
2023/07/10 03:59:23;;;;;;;9.32;6.97;;;;;;;19.23;100.00;101976.22;5209154;28;20073;-68
2023/07/10 04:01:54;;;;;;;8.47;5.33;;;;;;;19.30;100.00;101993.19;5208907;28;20036;-68
2023/07/10 04:04:26;;;;;;;8.47;6.13;;;;;;;19.29;100.00;102003.00;5209539;28;20033;-67
2023/07/10 04:06:57;;;;;;;8.87;5.70;;;;;;;19.26;100.00;101997.97;5206717;28;20022;-66
2023/07/10 04:09:28;;;;;;;8.87;6.10;;;;;;;19.30;100.00;101996.69;5210255;28;20033;-64
2023/07/10 04:11:59;;;;;;;10.23;5.85;;;;;;;19.31;100.00;102008.97;5208729;28;20557;-66
2023/07/10 04:14:36;;;;;;;8.30;6.68;;;;;;;19.29;100.00;102004.81;5209798;28;20080;-66
2023/07/10 04:17:07;;;;;;;9.18;7.22;;;;;;;19.16;100.00;102015.84;5208582;28;20133;-66
2023/07/10 04:19:38;;;;;;;10.02;6.75;;;;;;;19.28;100.00;102011.97;5208336;28;20033;-66
2023/07/10 04:22:10;;;;;;;9.77;6.88;;;;;;;19.27;100.00;102004.97;5210038;28;20036;-67
2023/07/10 04:24:41;;;;;;;9.65;7.05;;;;;;;19.35;100.00;102002.34;5210209;28;20069;-67
2023/07/10 04:27:12;;;;;;;9.27;7.90;;;;;;;19.38;100.00;102003.84;5209325;28;20037;-65
2023/07/10 04:29:44;;;;;;;9.53;7.53;;;;;;;19.46;100.00;102009.19;5207940;28;20351;-66
2023/07/10 04:32:15;;;;;;;14.67;8.73;;;;;;;19.42;100.00;102006.03;5208843;28;20017;-66
2023/07/10 04:34:46;;;;;;;10.27;8.02;;;;;;;19.47;100.00;102002.03;5208725;28;20234;-66
2023/07/10 04:37:18;;;;;;;9.70;7.82;;;;;;;19.47;100.00;102008.19;5208150;28;20692;-66
2023/07/10 04:39:49;;;;;;;12.63;7.73;;;;;;;19.47;100.00;102000.22;5206206;28;20029;-66
2023/07/10 04:42:20;;;;;;;9.83;7.73;;;;;;;19.49;100.00;102005.38;5208119;28;20037;-67
2023/07/10 04:44:51;;;;;;;9.73;7.70;;;;;;;19.53;100.00;102004.91;5209610;28;20049;-67
2023/07/10 04:47:23;;;;;;;11.83;7.70;;;;;;;19.51;100.00;102009.56;5210499;28;20448;-68
2023/07/10 04:49:54;;;;;;;11.32;7.75;;;;;;;19.46;100.00;102009.19;5208787;28;20044;-65
2023/07/10 04:52:25;;;;;;;8.15;7.35;;;;;;;19.55;100.00;101999.44;5207277;28;20245;-68
2023/07/10 04:54:56;;;;;;;12.63;7.93;;;;;;;19.50;100.00;102009.72;5208740;28;20484;-67
2023/07/10 04:57:28;;;;;;;11.80;7.53;;;;;;;19.55;100.00;102018.88;5208589;28;20563;-66
2023/07/10 04:59:59;;;;;;;10.67;7.50;;;;;;;19.49;100.00;102022.16;5208592;28;20046;-66
2023/07/10 05:02:31;;;;;;;9.55;8.20;;;;;;;19.57;100.00;102024.03;5207799;28;20184;-66
2023/07/10 05:05:02;;;;;;;9.77;7.87;;;;;;;19.51;100.00;102020.19;5207238;28;20033;-67
2023/07/10 05:07:33;;;;;;;11.03;8.57;;;;;;;19.54;100.00;102021.69;5207672;28;20044;-67
2023/07/10 05:10:05;;;;;;;11.23;8.50;;;;;;;19.50;100.00;102030.97;5207248;28;20033;-68
2023/07/10 05:12:36;;;;;;;9.98;8.23;;;;;;;19.52;100.00;102024.50;5208838;28;20117;-66
2023/07/10 05:15:08;;;;;;;11.30;8.43;;;;;;;19.61;100.00;102028.84;5207754;28;20041;-67
2023/07/10 05:17:41;;;;;;;11.02;8.32;;;;;;;19.59;100.00;102030.03;5203386;28;20080;-66
2023/07/10 05:20:12;;;;;;;9.73;8.60;;;;;;;19.59;100.00;102030.84;5207918;28;20104;-66
2023/07/10 05:22:44;;;;;;;8.33;7.17;;;;;;;19.60;100.00;102032.50;5211486;28;20036;-66
2023/07/10 05:25:15;;;;;;;9.02;7.45;;;;;;;19.68;100.00;102037.06;5211857;28;20101;-65
2023/07/10 05:27:46;;;;;;;8.63;7.68;;;;;;;19.69;100.00;102033.41;5213465;28;20030;-66
2023/07/10 05:30:18;;;;;;;11.77;7.25;;;;;;;19.68;100.00;102034.41;5213034;28;20101;-66
2023/07/10 05:32:49;;;;;;;10.65;7.38;;;;;;;19.72;100.00;102042.88;5210798;28;20030;-66
2023/07/10 05:35:20;;;;;;;9.90;7.00;;;;;;;19.74;100.00;102044.41;5212252;28;20036;-65
2023/07/10 05:37:52;;;;;;;9.60;6.40;;;;;;;19.81;100.00;102036.59;5210576;28;20029;-68
2023/07/10 05:40:23;;;;;;;8.52;6.72;;;;;;;19.85;100.00;102037.94;5211397;28;20477;-67
2023/07/10 05:42:54;;;;;;;11.20;6.90;;;;;;;19.85;100.00;102040.59;5212420;28;20495;-66
2023/07/10 05:45:25;;;;;;;8.93;6.47;;;;;;;19.88;100.00;102037.59;5213787;28;20557;-67
2023/07/10 05:47:57;;;;;;;8.80;6.17;;;;;;;19.95;100.00;102035.97;5213468;28;20030;-66
2023/07/10 05:50:28;;;;;;;7.70;5.57;;;;;;;19.99;100.00;102025.84;5213045;28;20451;-66
2023/07/10 05:52:59;;;;;;;8.70;5.67;;;;;;;19.99;100.00;102031.16;5209614;28;20360;-67
2023/07/10 05:55:30;;;;;;;8.53;5.63;;;;;;;20.04;100.00;102031.50;5212038;28;20469;-67
2023/07/10 05:58:02;;;;;;;8.68;5.20;;;;;;;20.08;100.00;102028.38;5211405;28;20033;-66
2023/07/10 06:00:33;;;;;;;8.52;5.32;;;;;;;20.13;100.00;102036.69;5212716;28;20050;-66
2023/07/10 06:03:04;;;;;;;8.67;5.47;;;;;;;20.23;100.00;102033.03;5214111;28;20048;-67
2023/07/10 06:05:36;;;;;;;9.70;5.03;;;;;;;20.22;100.00;102037.50;5213784;28;20068;-66
2023/07/10 06:08:08;;;;;;;7.43;4.93;;;;;;;20.30;100.00;102039.34;5211114;28;20048;-68
2023/07/10 06:10:40;;;;;;;6.63;4.30;;;;;;;20.31;100.00;102043.69;5212947;28;20033;-66
2023/07/10 06:13:11;;;;;;;7.77;4.50;;;;;;;20.40;100.00;102034.72;5210744;28;20053;-65
2023/07/10 06:15:44;;;;;;;6.00;4.37;;;;;;;20.41;100.00;102037.19;5209788;28;20478;-67
2023/07/10 06:18:17;;;;;;;6.95;4.85;;;;;;;20.51;100.00;102031.75;5208275;28;20701;-66
2023/07/10 06:20:58;;;;;;;8.15;4.35;;;;;;;20.64;100.00;102040.06;5207467;28;20026;-65
2023/07/10 06:23:30;;;;;;;7.38;4.78;;;;;;;20.63;100.00;102046.38;5210935;28;20100;-67
2023/07/10 06:26:02;;;;;;;9.77;5.75;;;;;;;20.78;100.00;102043.06;5211506;28;20030;-66
2023/07/10 06:28:34;;;;;;;10.13;4.93;;;;;;;20.80;100.00;102043.72;5211246;28;20052;-66
2023/07/10 06:31:09;;;;;;;8.97;4.90;;;;;;;20.92;100.00;102050.38;5211598;28;20041;-67
2023/07/10 06:33:40;;;;;;;7.85;4.38;;;;;;;20.94;100.00;102056.34;5207571;28;20038;-67
2023/07/10 06:36:12;;;;;;;7.03;4.10;;;;;;;21.09;100.00;102054.66;5210701;28;20040;-66
2023/07/10 06:38:43;;;;;;;9.53;4.60;;;;;;;21.17;100.00;102055.63;5210932;28;20038;-67
2023/07/10 06:41:14;;;;;;;6.27;4.13;;;;;;;21.30;100.00;102062.09;5213389;28;20026;-67
2023/07/10 06:43:46;;;;;;;9.43;4.10;;;;;;;21.34;100.00;102062.63;5210476;28;20026;-66
2023/07/10 06:46:17;;;;;;;9.03;4.00;;;;;;;21.54;100.00;102055.06;5212194;28;20096;-68
2023/07/10 06:48:49;;;;;;;7.20;3.87;;;;;;;21.57;100.00;102060.03;5210410;28;20026;-67
2023/07/10 06:51:20;;;;;;;6.13;3.23;;;;;;;21.58;100.00;102059.84;5211240;28;20028;-66
2023/07/10 06:53:51;;;;;;;6.20;3.70;;;;;;;21.74;100.00;102068.78;5205901;28;20313;-66
2023/07/10 06:56:22;;;;;;;7.23;3.20;;;;;;;21.82;100.00;102058.94;5210275;28;20118;-67
2023/07/10 06:58:54;;;;;;;7.47;3.00;;;;;;;21.87;100.00;102063.75;5210443;28;20053;-67
2023/07/10 07:01:25;;;;;;;12.67;3.30;;;;;;;21.97;100.00;102069.69;5209014;28;20033;-68
2023/07/10 07:03:56;;;;;;;6.67;3.40;;;;;;;22.16;100.00;102071.13;5211565;28;20016;-68
2023/07/10 07:06:28;;;;;;;7.73;2.83;;;;;;;22.25;96.50;102061.22;5209981;28;20021;-67
2023/07/10 07:08:59;;;;;;;5.97;2.90;;;;;;;22.34;94.18;102062.81;5211459;28;20484;-67
2023/07/10 07:11:30;;;;;;;6.37;2.73;;;;;;;22.48;92.34;102059.34;5211943;28;20459;-65
2023/07/10 07:14:02;;;;;;;7.00;2.83;;;;;;;22.50;89.82;102069.84;5212383;28;20483;-67
2023/07/10 07:16:33;;;;;;;7.37;2.87;;;;;;;22.63;90.48;102071.94;5208376;28;20029;-66
2023/07/10 07:19:04;;;;;;;6.60;3.50;;;;;;;22.69;89.49;102068.53;5209459;28;20030;-67
2023/07/10 07:21:36;;;;;;;6.33;3.37;;;;;;;22.73;86.71;102057.31;5208669;28;20033;-67
2023/07/10 07:24:07;;;;;;;7.63;3.60;;;;;;;22.87;86.63;102079.72;5211651;28;20029;-66
2023/07/10 07:26:38;;;;;;;7.63;3.67;;;;;;;22.93;85.30;102079.03;5210631;28;20042;-67
2023/07/10 07:29:10;;;;;;;5.30;3.10;;;;;;;23.00;84.21;102079.16;5209615;28;20476;-67
2023/07/10 07:31:41;;;;;;;9.73;4.33;;;;;;;23.15;85.67;102084.53;5207449;28;20037;-66
2023/07/10 07:34:12;;;;;;;10.67;3.73;;;;;;;23.34;84.91;102086.66;5209826;28;20030;-66
2023/07/10 07:36:44;;;;;;;8.40;3.40;;;;;;;23.35;82.88;102093.66;5212666;28;20050;-67
2023/07/10 07:39:16;;;;;;;7.47;3.30;;;;;;;23.30;80.56;102086.19;5210184;28;20026;-67
2023/07/10 07:41:47;;;;;;;5.97;3.30;;;;;;;23.39;79.58;102088.75;5207321;28;20028;-67
2023/07/10 07:44:18;;;;;;;9.53;3.43;;;;;;;23.53;78.60;102086.09;5207347;28;20018;-67
2023/07/10 07:46:49;;;;;;;7.50;3.43;;;;;;;23.67;77.78;102084.44;5209699;28;20034;-67
2023/07/10 07:49:23;;;;;;;17.37;5.00;;;;;;;23.74;75.43;102076.47;5207435;28;20396;-68
2023/07/10 07:51:55;;;;;;;6.38;3.25;;;;;;;23.79;75.13;102084.81;5210230;28;20161;-68
2023/07/10 07:54:26;;;;;;;8.73;3.60;;;;;;;24.01;72.53;102082.97;5208376;28;20407;-66
2023/07/10 07:56:57;;;;;;;6.90;3.00;;;;;;;24.04;71.45;102082.59;5210877;28;20030;-67
2023/07/10 07:59:29;;;;;;;7.37;3.27;;;;;;;24.05;69.25;102078.91;5210382;28;20140;-68
2023/07/10 08:02:00;;;;;;;9.00;3.37;;;;;;;24.15;68.05;102070.56;5210252;28;20030;-66
2023/07/10 08:04:31;;;;;;;7.80;2.60;;;;;;;24.25;66.47;102071.09;5205302;28;20025;-67
2023/07/10 08:07:03;;;;;;;5.63;2.40;;;;;;;24.42;66.14;102067.16;5207447;28;20296;-66
2023/07/10 08:09:34;;;;;;;5.17;2.87;;;;;;;24.52;62.84;102066.84;5209200;28;20111;-66
2023/07/10 08:12:06;;;;;;;8.03;2.43;;;;;;;24.60;65.28;102065.88;5207189;28;20060;-67
2023/07/10 08:14:38;;;;;;;8.43;2.78;;;;;;;24.78;61.41;102071.59;5210435;28;20065;-66
2023/07/10 08:17:09;;;;;;;4.73;2.30;;;;;;;24.81;60.51;102065.00;5209935;28;20104;-68
2023/07/10 08:19:40;;;;;;;7.67;2.60;;;;;;;24.81;60.19;102070.38;5208559;28;20037;-67
2023/07/10 08:22:12;;;;;;;7.50;2.50;;;;;;;25.11;60.21;102063.81;5207747;28;20026;-68
2023/07/10 08:24:43;;;;;;;5.40;2.37;;;;;;;25.05;57.44;102069.13;5205594;28;20073;-67
2023/07/10 08:27:14;;;;;;;8.27;2.63;;;;;;;25.20;57.77;102061.81;5203587;28;20044;-68
2023/07/10 08:29:45;;;;;;;4.77;2.00;;;;;;;25.16;55.59;102060.56;5207686;28;20146;-68
2023/07/10 08:32:17;;;;;;;6.60;2.40;;;;;;;25.29;56.97;102065.97;5208393;28;20026;-66
2023/07/10 08:34:48;;;;;;;5.50;2.37;;;;;;;25.50;55.71;102072.28;5208280;28;20041;-67
2023/07/10 08:37:19;;;;;;;6.27;2.33;;;;;;;25.55;54.86;102072.50;5209789;28;20092;-69
2023/07/10 08:39:50;;;;;;;7.07;2.93;;;;;;;25.61;56.03;102074.38;5209769;28;20022;-67
2023/07/10 08:42:27;;;;;;;7.77;2.73;;;;;;;25.71;56.96;102077.53;5210539;28;20038;-68
2023/07/10 08:45:00;;;;;;;7.20;2.22;;;;;;;25.61;53.39;102072.53;5210435;28;20060;-68
2023/07/10 08:47:35;;;;;;;;;;;;;;;26.51;51.16;102070.53;5212093;28;20022;-67
2023/07/10 08:50:22;;;;;;;4.40;2.03;;;;;;;25.99;52.76;102081.97;5209609;28;19913;-69
2023/07/10 08:53:10;;;;;;;11.57;2.78;;;;;;;26.09;51.29;102067.13;5207693;28;20044;-68
2023/07/10 08:55:42;;;;;;;6.22;2.25;;;;;;;25.96;50.26;102065.25;5210196;28;20495;-67
2023/07/10 08:58:36;;;;;;;8.20;2.27;;;;;;;26.38;49.23;102071.31;5207783;28;20034;-68
2023/07/10 09:01:31;;;;;;;8.23;2.20;;;;;;;26.15;49.84;102074.41;5210007;28;20417;-68
2023/07/10 09:04:04;;;;;;;7.88;2.30;;;;;;;26.26;51.98;102072.97;5208933;28;20040;-69
2023/07/10 09:06:40;;;;;;;6.22;2.10;;;;;;;26.36;51.38;102070.69;5208107;28;20032;-66
2023/07/10 09:09:33;;;;;;;9.07;2.45;;;;;;;26.69;50.14;102078.81;5208829;28;20075;-68
2023/07/10 09:12:20;;;;;;;6.32;2.28;;;;;;;26.65;48.59;102076.75;5210008;28;20658;-67
2023/07/10 09:15:00;;;;;;;5.40;1.95;;;;;;;26.71;49.76;102075.94;5208506;28;20108;-69
2023/07/10 09:17:46;;;;;;;7.22;2.28;;;;;;;27.06;50.74;102075.69;5210159;28;20128;-68
2023/07/10 09:20:22;;;;;;;6.10;2.28;;;;;;;26.71;47.92;102073.25;5209259;28;20412;-68
2023/07/10 09:23:02;;;;;;;6.53;1.75;;;;;;;26.73;47.38;102068.47;5210276;28;20045;-68
2023/07/10 09:25:36;;;;;;;7.75;2.60;;;;;;;26.68;47.81;102074.47;5208562;28;20057;-68
2023/07/10 09:28:07;;;;;;;6.43;2.33;;;;;;;26.78;47.09;102076.72;5207389;28;20030;-68
2023/07/10 09:30:58;;;;;;;6.20;2.30;;;;;;;27.24;47.14;102070.50;5223532;28;20040;-68
2023/07/10 09:33:56;;;;;;;7.00;2.30;;;;;;;27.23;47.44;102070.69;5208162;28;20029;-68
2023/07/10 09:36:28;;;;;;;5.93;2.70;;;;;;;27.15;46.90;102074.44;5192176;28;20037;-67
2023/07/10 09:39:01;;;;;;;7.87;2.13;;;;;;;27.38;46.73;102065.88;5206341;28;20895;-69
2023/07/10 09:41:32;;;;;;;4.80;2.17;;;;;;;27.44;47.29;102075.81;5207189;28;20024;-68
2023/07/10 09:44:17;;;;;;;7.33;2.23;;;;;;;27.66;45.39;102084.44;5209213;28;20403;-68
2023/07/10 09:46:49;;;;;;;4.78;2.00;;;;;;;27.40;45.35;102078.09;5202362;28;20029;-67
2023/07/10 09:49:23;;;;;;;7.78;1.90;;;;;;;27.38;43.07;102080.16;5207859;28;20064;-69
2023/07/10 09:52:00;;;;;;;5.93;1.92;;;;;;;27.55;43.61;102082.41;5209955;28;20036;-68
2023/07/10 09:54:37;;;;;;;6.45;2.28;;;;;;;27.49;43.42;102080.56;5210126;28;20385;-68
2023/07/10 09:57:15;;;;;;;7.60;3.17;;;;;;;27.47;43.99;102085.34;5210172;28;20025;-68
2023/07/10 09:59:49;;;;;;;5.47;1.80;;;;;;;27.49;43.69;102078.69;5209090;28;20045;-67
2023/07/10 10:02:22;;;;;;;4.80;1.80;;;;;;;27.71;42.83;102071.16;5208611;28;20172;-69
2023/07/10 10:05:19;;;;;;;7.65;2.35;;;;;;;28.39;41.73;102077.84;5190974;28;20018;-68
2023/07/10 10:07:52;;;;;;;3.85;1.75;;;;;;;28.07;42.70;102067.03;5209098;28;20460;-68
2023/07/10 10:10:30;;;;;;;6.95;2.40;;;;;;;28.28;41.73;102077.47;5212191;28;20040;-68
2023/07/10 10:13:11;;;;;;;7.35;2.17;;;;;;;28.31;43.14;102077.03;5212577;28;20026;-69
2023/07/10 10:16:03;;;;;;;4.03;1.73;;;;;;;28.41;43.54;102067.66;5214052;28;20117;-68
2023/07/10 10:18:34;;;;;;;6.20;1.58;;;;;;;28.25;40.77;102066.28;5212882;28;20030;-68
2023/07/10 10:21:06;;;;;;;4.57;1.50;;;;;;;28.36;39.37;102069.13;5212949;28;20041;-68
2023/07/10 10:23:39;;;;;;;5.10;1.80;;;;;;;28.34;38.48;102065.81;5193280;28;20148;-69
2023/07/10 10:26:16;;;;;;;5.13;1.90;;;;;;;28.45;40.68;102066.16;5211133;28;20039;-69
2023/07/10 10:29:06;;;;;;;4.85;1.63;;;;;;;28.77;40.92;102061.56;5213507;28;20022;-68
2023/07/10 10:31:51;;;;;;;10.27;2.42;;;;;;;28.76;39.32;102063.44;5213035;28;20113;-68
2023/07/10 10:34:35;;;;;;;6.80;2.03;;;;;;;28.67;39.63;102075.53;5213315;28;20475;-68
2023/07/10 10:37:25;;;;;;;4.57;1.75;;;;;;;28.65;39.28;102072.25;5211194;28;20057;-69
2023/07/10 10:40:20;;;;;;;4.47;1.85;;;;;;;28.54;40.29;102070.25;5226143;28;20051;-69
2023/07/10 10:43:22;;;;;;;4.93;1.92;;;;;;;28.69;39.70;102057.28;5212111;28;20029;-68
2023/07/10 10:46:15;;;;;;;4.82;1.40;;;;;;;28.80;39.64;102055.72;5212165;28;20036;-68
2023/07/10 10:49:15;;;;;;;7.00;2.05;;;;;;;28.69;39.93;102064.53;5211519;28;20422;-69
2023/07/10 10:51:49;;;;;;;5.00;2.13;;;;;;;28.13;39.29;102068.88;5211425;28;20486;-69
2023/07/10 10:54:31;;;;;;;6.45;1.55;;;;;;;28.63;38.91;102074.31;5211615;28;20112;-69
2023/07/10 10:57:30;;;;;;;4.55;1.88;;;;;;;28.99;39.11;102067.41;5212504;28;20104;-68
2023/07/10 11:00:17;;;;;;;6.75;1.90;;;;;;;28.83;38.57;102074.16;5209008;28;20046;-67
2023/07/10 11:02:48;;;;;;;5.38;2.13;;;;;;;28.95;37.66;102082.34;5211262;28;20026;-67
2023/07/10 11:05:36;;;;;;;5.20;2.07;;;;;;;29.22;38.37;102080.22;5209923;28;20088;-69
2023/07/10 11:08:18;;;;;;;5.13;1.77;;;;;;;28.84;39.09;102086.59;5210641;28;20030;-69
2023/07/10 11:10:52;;;;;;;6.60;1.77;;;;;;;28.53;38.29;102074.84;5211548;28;20030;-68
2023/07/10 11:13:34;;;;;;;5.95;2.22;;;;;;;28.35;39.79;102072.03;5212230;28;20080;-68
2023/07/10 11:16:06;;;;;;;6.60;2.03;;;;;;;28.09;38.66;102076.56;5210432;28;20029;-68
2023/07/10 11:18:38;;;;;;;5.55;1.83;;;;;;;28.09;40.00;102078.44;5210464;28;20017;-69
2023/07/10 11:21:09;;;;;;;7.22;2.03;;;;;;;28.44;39.86;102057.25;5209502;28;20033;-69
2023/07/10 11:23:41;;;;;;;6.67;2.10;;;;;;;28.65;37.32;102056.06;5211077;28;20018;-68
2023/07/10 11:26:23;;;;;;;6.50;1.80;;;;;;;28.94;37.91;102048.31;5210509;28;20040;-68
2023/07/10 11:28:56;;;;;;;;;;;;;;;29.76;37.43;102055.06;5211358;28;20031;-69
2023/07/10 11:31:31;;;;;;;6.90;2.60;;;;;;;29.18;37.49;102055.56;5209928;28;19913;-68
2023/07/10 11:34:05;;;;;;;5.80;1.50;;;;;;;29.34;36.07;102051.44;5211192;28;20057;-68
2023/07/10 11:36:39;;;;;;;5.38;1.90;;;;;;;29.44;36.20;102050.91;5209603;28;20464;-68
2023/07/10 11:39:29;;;;;;;6.07;1.70;;;;;;;29.92;36.66;102058.19;5211341;28;20032;-68
2023/07/10 11:42:13;;;;;;;5.32;1.70;;;;;;;30.03;36.50;102050.09;5210376;28;20491;-67
2023/07/10 11:44:53;;;;;;;5.43;1.63;;;;;;;29.71;36.04;102054.94;5209490;28;20030;-68
2023/07/10 11:47:29;;;;;;;7.75;1.70;;;;;;;29.55;36.23;102036.66;5208922;28;20487;-68
2023/07/10 11:50:00;;;;;;;4.53;1.58;;;;;;;28.94;36.56;102043.72;5209927;28;20025;-68
2023/07/10 11:52:33;;;;;;;4.47;1.73;;;;;;;29.22;37.17;102034.34;5210705;28;20363;-69
2023/07/10 11:55:12;;;;;;;4.78;1.75;;;;;;;29.64;38.07;102048.78;5210583;28;20026;-68